Time;durP1;ratioP1;P1;durP2;ratioP2;P2;SDS_P1;SDS_P2;PMS_P1;PMS_P2;Temp;Humidity;BMP_temperature;BMP_pressure;BME280_temperature;BME280_humidity;BME280_pressure;Samples;Min_cycle;Max_cycle;Signal;HPM_P1;HPM_P2
2023/10/11 00:00:33;;;;;;;;;15.50;12.50;;;;;20.00;52.58;101444.56;5041942;28;45213;-51
2023/10/11 00:02:59;;;;;;;;;15.33;13.67;;;;;20.02;52.88;101454.16;5042406;28;45320;-46
2023/10/11 00:05:28;;;;;;;;;16.33;14.67;;;;;20.02;52.38;101453.31;5041949;28;46488;-44
2023/10/11 00:07:58;;;;;;;;;21.00;17.25;;;;;20.04;52.47;101453.94;5041989;28;45300;-51
2023/10/11 00:10:23;;;;;;;;;16.00;13.33;;;;;19.99;52.28;101451.81;5041805;28;45343;-47
2023/10/11 00:12:50;;;;;;;;;17.67;15.67;;;;;19.96;52.55;101454.91;5042077;28;45491;-47
2023/10/11 00:15:16;;;;;;;;;12.25;11.75;;;;;19.90;52.84;101453.81;5041679;28;46365;-50
2023/10/11 00:17:46;;;;;;;;;16.00;13.00;;;;;19.87;53.01;101453.34;5041718;28;45374;-43
2023/10/11 00:20:29;;;;;;;;;15.67;12.33;;;;;19.79;53.04;101450.75;5041996;28;45385;-44
2023/10/11 00:22:55;;;;;;;;;16.00;13.33;;;;;19.80;52.99;101464.06;5042074;28;45317;-46
2023/10/11 00:25:24;;;;;;;;;19.33;16.00;;;;;19.77;52.96;101471.72;5041602;28;46343;-53
2023/10/11 00:27:52;;;;;;;;;24.67;15.33;;;;;19.72;53.31;101468.72;5041902;28;45370;-51
2023/10/11 00:30:19;;;;;;;;;16.67;14.00;;;;;19.72;53.53;101468.72;5041711;28;45493;-42
2023/10/11 00:32:47;;;;;;;;;13.33;12.00;;;;;19.72;53.20;101466.91;5041862;28;45374;-46
2023/10/11 00:35:18;;;;;;;;;14.67;12.33;;;;;19.70;53.11;101471.63;5041573;28;47122;-52
2023/10/11 00:37:47;;;;;;;;;11.33;9.67;;;;;19.66;52.90;101465.78;5041648;28;45414;-47
2023/10/11 00:40:14;;;;;;;;;16.67;14.67;;;;;19.63;53.61;101470.72;5039867;28;45362;-45
2023/10/11 00:42:40;;;;;;;;;14.50;12.50;;;;;19.55;53.67;101454.59;5038756;28;45251;-52
2023/10/11 00:45:08;;;;;;;;;13.00;11.75;;;;;19.57;53.59;101466.03;5038192;28;46195;-47
2023/10/11 00:47:40;;;;;;;;;13.00;11.67;;;;;19.60;53.61;101473.78;5038467;28;45435;-52
2023/10/11 00:50:08;;;;;;;;;20.33;17.00;;;;;19.57;53.77;101460.66;5038375;28;45487;-49
2023/10/11 00:52:34;;;;;;;;;19.00;16.33;;;;;19.47;53.64;101460.09;5038482;28;45432;-47
2023/10/11 00:55:00;;;;;;;;;22.67;15.67;;;;;19.50;53.88;101468.63;5038029;28;46453;-46
2023/10/11 00:57:27;;;;;;;;;16.67;13.00;;;;;19.47;53.91;101455.56;5020191;28;45356;-51
2023/10/11 00:59:53;;;;;;;;;14.00;10.00;;;;;19.43;53.63;101451.56;5037396;28;45407;-48
2023/10/11 01:02:18;;;;;;;;;20.00;13.33;;;;;19.40;53.73;101444.66;5038185;28;45286;-51
2023/10/11 01:04:44;;;;;;;;;16.67;11.67;;;;;19.35;54.36;101441.69;5037849;28;45962;-52
2023/10/11 01:07:10;;;;;;;;;21.00;18.00;;;;;19.33;54.21;101442.88;5038011;28;45286;-48
2023/10/11 01:09:37;;;;;;;;;16.00;12.67;;;;;19.30;54.28;101449.50;5038203;28;45511;-46
2023/10/11 01:12:03;;;;;;;;;14.67;13.00;;;;;19.28;53.82;101443.44;5038295;28;45409;-44
2023/10/11 01:14:36;;;;;;;;;15.33;12.00;;;;;19.25;54.00;101441.13;5037545;28;46217;-41
2023/10/11 01:17:02;;;;;;;;;12.00;12.00;;;;;19.21;54.41;101439.81;5037918;28;45435;-42
2023/10/11 01:19:27;;;;;;;;;17.33;14.00;;;;;19.08;54.49;101424.28;5037853;28;45376;-41
2023/10/11 01:21:59;;;;;;;;;15.00;13.33;;;;;19.14;54.33;101430.81;5037905;28;45308;-45
2023/10/11 01:24:24;;;;;;;;;17.00;12.00;;;;;19.11;54.38;101432.00;5037580;28;47504;-44
2023/10/11 01:26:49;;;;;;;;;18.33;12.33;;;;;19.09;54.63;101431.38;5037437;28;45335;-47
2023/10/11 01:29:15;;;;;;;;;22.00;11.00;;;;;19.10;54.17;101421.44;5037503;28;45286;-48
2023/10/11 01:31:40;;;;;;;;;13.00;11.00;;;;;19.10;54.30;101426.81;5037737;28;45539;-52
2023/10/11 01:34:05;;;;;;;;;15.00;12.33;;;;;19.05;54.07;101413.91;5037751;28;45673;-45
2023/10/11 01:36:31;;;;;;;;;20.33;15.33;;;;;19.06;54.83;101415.56;5037540;28;45389;-52
2023/10/11 01:39:02;;;;;;;;;13.33;10.33;;;;;18.91;55.20;101402.06;5037497;28;45787;-40
2023/10/11 01:41:27;;;;;;;;;15.33;12.00;;;;;18.83;55.13;101402.16;5037898;28;45482;-40
2023/10/11 01:43:56;;;;;;;;;13.33;13.33;;;;;18.94;54.96;101412.50;5037336;28;45876;-53
2023/10/11 01:46:34;;;;;;;;;18.00;15.67;;;;;18.89;55.11;101404.13;5037189;28;45391;-51
2023/10/11 01:49:01;;;;;;;;;15.33;13.67;;;;;18.89;55.19;101397.91;5036535;28;45389;-49
2023/10/11 01:51:26;;;;;;;;;15.00;12.67;;;;;18.91;54.68;101396.66;5019400;28;45408;-40
2023/10/11 01:54:11;;;;;;;;;17.50;12.00;;;;;18.91;54.86;101396.66;5036302;28;45529;-40
2023/10/11 01:56:38;;;;;;;;;19.00;11.33;;;;;18.92;54.92;101397.53;5036576;28;45336;-41
2023/10/11 01:59:04;;;;;;;;;14.00;12.33;;;;;18.91;54.74;101390.44;5037471;28;45341;-44
2023/10/11 02:01:38;;;;;;;;;13.33;13.33;;;;;18.86;54.43;101382.91;5036944;28;45526;-40
2023/10/11 02:04:04;;;;;;;;;21.67;16.33;;;;;18.81;55.23;101397.97;5019249;28;48097;-40
2023/10/11 02:06:32;;;;;;;;;14.00;12.33;;;;;18.74;55.25;101384.41;5036805;28;45365;-52
2023/10/11 02:08:58;;;;;;;;;21.00;11.33;;;;;18.74;55.48;101388.94;5036981;28;45260;-51
2023/10/11 02:11:25;;;;;;;;;16.67;10.67;;;;;18.74;55.18;101383.56;5037061;28;45360;-41
2023/10/11 02:13:52;;;;;;;;;17.67;14.33;;;;;18.75;54.98;101382.53;5036384;28;46230;-41
2023/10/11 02:16:18;;;;;;;;;16.00;14.67;;;;;18.74;55.25;101380.88;5036599;28;45352;-42
2023/10/11 02:18:44;;;;;;;;;21.67;13.00;;;;;18.62;55.26;101365.13;5036145;28;45478;-39
2023/10/11 02:21:09;;;;;;;;;13.67;13.67;;;;;18.72;55.20;101380.22;5037020;28;45484;-40
2023/10/11 02:23:40;;;;;;;;;19.67;13.00;;;;;18.73;55.11;101371.13;5036485;28;46131;-41
2023/10/11 02:26:16;;;;;;;;;15.33;12.33;;;;;18.72;55.13;101370.28;5036895;28;45347;-42
2023/10/11 02:28:43;;;;;;;;;19.67;12.67;;;;;18.73;55.49;101368.41;5036748;28;45325;-40
2023/10/11 02:31:12;;;;;;;;;14.33;12.00;;;;;18.67;55.36;101368.13;5036454;28;45320;-41
2023/10/11 02:33:39;;;;;;;;;16.33;14.00;;;;;18.71;55.30;101371.31;5036390;28;47103;-42
2023/10/11 02:36:08;;;;;;;;;13.33;10.33;;;;;18.72;55.26;101372.97;5036547;28;45457;-41
2023/10/11 02:38:47;;;;;;;;;13.00;10.67;;;;;18.69;55.25;101370.59;5036727;28;45326;-42
2023/10/11 02:41:14;;;;;;;;;18.33;13.00;;;;;18.65;55.05;101369.31;5037011;28;45340;-40
2023/10/11 02:43:49;;;;;;;;;10.00;8.00;;;;;18.61;55.27;101363.44;5036444;28;46350;-40
2023/10/11 02:46:15;;;;;;;;;14.67;10.67;;;;;18.57;55.10;101370.22;5036121;28;45419;-41
2023/10/11 02:48:46;;;;;;;;;19.33;16.00;;;;;18.54;55.23;101365.22;5036671;28;45407;-40
2023/10/11 02:51:15;;;;;;;;;13.00;11.00;;;;;18.48;55.17;101357.03;5036403;28;45406;-40
2023/10/11 02:53:43;;;;;;;;;11.33;10.00;;;;;18.35;55.84;101357.66;5018240;28;47315;-40
2023/10/11 02:56:09;;;;;;;;;18.00;13.00;;;;;18.37;56.08;101372.63;5036108;28;45293;-41
2023/10/11 02:58:38;;;;;;;;;16.67;13.33;;;;;18.34;56.00;101380.22;5035995;28;45566;-40
2023/10/11 03:01:05;;;;;;;;;12.67;11.67;;;;;18.38;55.82;101386.94;5036326;28;45392;-41
2023/10/11 03:03:31;;;;;;;;;17.33;14.33;;;;;18.41;55.84;101383.84;5035775;28;45404;-42
2023/10/11 03:05:56;;;;;;;;;14.33;12.33;;;;;18.40;55.79;101387.56;5036040;28;45474;-42
2023/10/11 03:08:26;;;;;;;;;18.67;12.67;;;;;18.37;55.71;101380.72;5018348;28;45604;-42
2023/10/11 03:10:53;;;;;;;;;17.67;14.33;;;;;18.42;55.41;101378.28;5036375;28;45337;-41
2023/10/11 03:13:29;;;;;;;;;19.00;13.00;;;;;18.34;55.86;101391.84;5035816;28;46199;-42
2023/10/11 03:16:01;;;;;;;;;10.67;9.67;;;;;18.33;55.87;101379.41;5035820;28;45556;-41
2023/10/11 03:18:32;;;;;;;;;11.33;10.00;;;;;18.29;55.94;101383.47;5036107;28;45494;-41
2023/10/11 03:21:21;;;;;;;;;14.67;14.67;;;;;18.30;55.91;101378.91;5036290;28;45524;-41
2023/10/11 03:23:48;;;;;;;;;15.00;11.33;;;;;18.26;56.37;101374.91;5035828;28;46070;-41
2023/10/11 03:28:58;;;;;;;;;12.33;11.67;;;;;18.30;56.32;101376.22;5035857;28;45261;-41
2023/10/11 03:31:28;;;;;;;;;15.33;12.00;;;;;18.24;56.23;101358.09;5034848;28;45439;-40
2023/10/11 03:34:12;;;;;;;;;17.00;11.00;;;;;18.25;55.95;101363.31;5035700;28;45420;-42
2023/10/11 03:36:51;;;;;;;;;16.67;9.00;;;;;18.26;56.37;101359.59;5017828;28;45388;-42
2023/10/11 03:39:27;;;;;;;;;14.33;14.00;;;;;18.24;56.28;101360.78;5035773;28;45459;-42
2023/10/11 03:41:59;;;;;;;;;18.67;14.33;;;;;18.24;56.31;101368.84;5035874;28;45462;-42
2023/10/11 03:44:28;;;;;;;;;16.00;11.00;;;;;18.24;56.35;101366.16;5017546;28;46365;-41
2023/10/11 03:46:54;;;;;;;;;16.33;13.00;;;;;18.20;56.25;101369.25;5035295;28;45391;-41
2023/10/11 03:51:49;;;;;;;;;15.00;11.50;;;;;18.17;56.14;101360.69;5035506;28;45255;-42
2023/10/11 03:54:21;;;;;;;;;14.00;11.33;;;;;18.16;56.14;101351.78;5035240;28;47101;-41
2023/10/11 03:56:56;;;;;;;;;15.00;9.33;;;;;18.14;56.35;101353.78;5035540;28;45438;-41
2023/10/11 03:59:25;;;;;;;;;17.00;10.00;;;;;18.10;56.23;101349.78;5035478;28;45297;-41
2023/10/11 04:01:51;;;;;;;;;19.00;12.33;;;;;17.98;56.23;101340.47;5034916;28;45419;-41
2023/10/11 04:04:18;;;;;;;;;11.00;10.33;;;;;17.98;56.58;101347.69;5034353;28;46257;-40
2023/10/11 04:06:50;;;;;;;;;14.33;11.00;;;;;17.89;56.68;101337.00;5035138;28;45341;-44
2023/10/11 04:09:49;;;;;;;;;14.33;11.67;;;;;17.86;56.71;101342.72;5035321;28;45607;-48
2023/10/11 04:12:10;;;;;;;;;11.33;11.00;;;;;17.77;57.10;101334.91;5030445;28;45478;-41
2023/10/11 04:14:44;;;;;;;;;14.00;10.67;;;;;17.78;57.15;101340.13;5035248;28;45244;-41
2023/10/11 04:19:48;;;;;;;;;17.33;12.33;;;;;17.72;57.39;101340.78;5038607;28;45428;-43
2023/10/11 04:22:16;;;;;;;;;14.00;11.33;;;;;17.71;57.13;101339.97;5039363;28;45464;-43
2023/10/11 04:24:43;;;;;;;;;15.00;12.33;;;;;17.69;57.01;101344.66;5038632;28;46100;-50
2023/10/11 04:29:44;;;;;;;;;17.00;11.33;;;;;17.60;57.29;101348.44;5038611;28;45399;-46
2023/10/11 04:32:13;;;;;;;;;13.67;12.00;;;;;17.58;57.10;101355.03;5038554;28;45390;-50
2023/10/11 04:34:47;;;;;;;;;15.33;10.67;;;;;17.52;57.33;101348.50;5038312;28;47142;-42
2023/10/11 04:37:19;;;;;;;;;14.33;11.33;;;;;17.52;57.49;101353.03;5038371;28;45425;-44
2023/10/11 04:39:50;;;;;;;;;16.67;13.33;;;;;17.52;57.97;101350.34;5038201;28;45427;-41
2023/10/11 04:42:19;;;;;;;;;13.33;12.00;;;;;17.47;57.96;101353.56;5038505;28;45554;-41
2023/10/11 04:44:54;;;;;;;;;15.33;10.67;;;;;17.50;57.68;101358.59;5038281;28;45393;-42
2023/10/11 04:47:21;;;;;;;;;14.00;10.00;;;;;17.53;57.62;101352.88;5037049;28;45392;-46
2023/10/11 04:49:48;;;;;;;;;18.33;12.00;;;;;17.50;57.89;101347.00;5038121;28;45342;-42
2023/10/11 04:52:22;;;;;;;;;17.00;12.67;;;;;17.50;57.76;101341.63;5038316;28;45524;-43
2023/10/11 04:54:54;;;;;;;;;14.67;12.33;;;;;17.46;57.94;101352.72;5037950;28;46229;-41
2023/10/11 05:00:31;;;;;;;;;14.33;11.67;;;;;17.47;57.69;101350.88;4937673;28;45384;-42
2023/10/11 05:02:58;;;;;;;;;11.67;8.00;;;;;17.55;57.41;101380.44;4953449;28;45364;-45
2023/10/11 05:05:24;;;;;;;;;18.33;14.33;;;;;17.55;57.54;101371.53;4937627;28;46208;-41
2023/10/11 05:08:01;;;;;;;;;14.00;13.67;;;;;17.60;57.64;101380.72;4937556;28;45421;-41
2023/10/11 05:13:05;;;;;;;;;16.00;14.00;;;;;17.57;57.80;101378.41;4955405;28;45480;-42
2023/10/11 05:15:40;;;;;;;;;15.33;13.67;;;;;17.48;57.64;101365.16;4956564;28;45431;-40
2023/10/11 05:18:06;;;;;;;;;16.67;12.67;;;;;17.58;57.82;101368.47;4956546;28;45396;-41
2023/10/11 05:23:11;;;;;;;;;14.67;11.33;;;;;17.56;57.88;101362.44;4956775;28;45379;-41
2023/10/11 05:25:52;;;;;;;;;22.00;13.00;;;;;17.54;57.96;101359.91;4956630;28;46006;-40
2023/10/11 05:28:27;;;;;;;;;11.00;10.67;;;;;17.55;58.06;101372.34;4956215;28;45489;-40
2023/10/11 05:33:59;;;;;;;;;23.00;13.67;;;;;17.49;57.66;101367.69;5037599;28;45427;-40
2023/10/11 05:36:48;;;;;;;;;15.67;12.33;;;;;17.53;58.20;101376.22;5036421;28;45380;-48
2023/10/11 05:52:55;;;;;;;;;22.00;16.67;;;;;17.45;58.53;101379.81;5037270;28;45335;-45
2023/10/11 05:55:24;;;;;;;;;18.33;14.33;;;;;17.41;58.37;101381.19;5037374;28;45304;-42
2023/10/11 05:57:50;;;;;;;;;16.67;14.00;;;;;17.28;58.45;101370.16;5036900;28;45383;-42
2023/10/11 06:00:26;;;;;;;;;17.33;13.33;;;;;17.31;58.26;101378.69;5036976;28;45483;-42
2023/10/11 06:02:52;;;;;;;;;15.00;13.00;;;;;17.20;58.10;101374.56;5036845;28;45317;-48
2023/10/11 06:05:22;;;;;;;;;19.67;13.00;;;;;17.20;58.38;101385.31;5037414;28;45414;-47
2023/10/11 06:08:00;;;;;;;;;21.33;14.67;;;;;17.17;58.73;101392.88;5036892;28;45388;-43
2023/10/11 06:10:29;;;;;;;;;15.00;15.00;;;;;17.15;58.47;101392.19;5036621;28;45412;-43
2023/10/11 06:12:58;;;;;;;;;16.33;13.00;;;;;17.08;58.41;101386.69;5036881;28;45275;-41
2023/10/11 06:15:23;;;;;;;;;14.67;14.33;;;;;17.10;58.48;101386.50;5036770;28;45325;-41
2023/10/11 06:17:49;;;;;;;;;14.33;11.67;;;;;17.08;58.27;101394.75;5036618;28;45558;-40
2023/10/11 06:20:27;;;;;;;;;21.00;13.33;;;;;16.82;58.44;101354.69;5036437;28;45426;-40
2023/10/11 06:22:56;;;;;;;;;16.00;11.33;;;;;17.08;58.01;101408.19;5036629;28;45281;-41
2023/10/11 06:25:49;;;;;;;;;13.33;13.33;;;;;17.01;58.58;101409.06;5037077;28;45394;-47
2023/10/11 06:28:13;;;;;;;;;21.33;13.33;;;;;17.04;58.63;101428.38;5036307;28;46156;-40
2023/10/11 06:30:46;;;;;;;;;15.67;11.00;;;;;17.03;58.45;101418.63;5035963;28;45374;-42
2023/10/11 06:33:13;;;;;;;;;19.33;13.33;;;;;17.04;58.33;101425.69;5036427;28;45162;-40
2023/10/11 06:35:45;;;;;;;;;13.33;12.33;;;;;17.04;58.43;101423.00;5036968;28;45226;-41
2023/10/11 06:38:13;;;;;;;;;15.67;11.00;;;;;17.01;58.72;101411.75;5017561;28;47610;-41
2023/10/11 06:40:39;;;;;;;;;20.67;15.33;;;;;17.03;58.65;101412.44;5036642;28;45425;-42
2023/10/11 06:43:08;;;;;;;;;18.00;14.33;;;;;17.05;58.71;101419.28;5036775;28;45407;-43
2023/10/11 06:45:35;;;;;;;;;20.00;14.33;;;;;17.10;58.60;101411.53;5036713;28;45496;-42
2023/10/11 06:48:06;;;;;;;;;16.00;14.00;;;;;17.15;58.34;101419.94;5036333;28;45388;-41
2023/10/11 06:50:35;;;;;;;;;14.67;14.00;;;;;17.19;58.46;101420.41;5036338;28;45501;-44
2023/10/11 06:53:06;;;;;;;;;23.33;14.00;;;;;17.22;58.26;101420.06;5036492;28;45454;-41
2023/10/11 06:55:33;;;;;;;;;19.00;14.00;;;;;17.22;58.31;101414.69;5036526;28;45535;-42
2023/10/11 06:58:03;;;;;;;;;22.67;17.67;;;;;17.24;58.37;101419.91;5035716;28;46751;-43
2023/10/11 07:00:28;;;;;;;;;21.67;14.00;;;;;17.26;58.34;101415.19;5036186;28;45338;-43
2023/10/11 07:03:45;;;;;;;;;19.00;16.67;;;;;17.23;58.34;101416.38;5036221;28;45453;-44
2023/10/11 07:05:59;;;;;;;;;20.33;13.00;;;;;17.33;58.30;101426.94;5028113;28;45381;-41
2023/10/11 07:08:35;;;;;;;;;18.33;15.67;;;;;17.25;58.56;101424.28;5035912;28;46491;-43
2023/10/11 07:13:49;;;;;;;;;11.00;10.67;;;;;17.22;58.50;101425.44;5036370;28;45419;-45
2023/10/11 07:16:14;;;;;;;;;19.33;15.67;;;;;17.28;58.32;101426.63;5036513;28;45383;-41
2023/10/11 07:18:43;;;;;;;;;16.00;14.33;;;;;17.27;58.17;101425.75;5035758;28;45346;-41
2023/10/11 07:21:09;;;;;;;;;19.67;15.33;;;;;17.31;58.63;101420.88;5036204;28;45206;-42
2023/10/11 07:23:56;;;;;;;;;18.33;15.00;;;;;17.28;58.54;101426.63;5036147;28;45669;-42
2023/10/11 07:29:01;;;;;;;;;16.00;14.67;;;;;17.45;58.01;101439.00;5035663;28;45471;-41
2023/10/11 07:31:32;;;;;;;;;19.67;13.67;;;;;17.51;57.60;101432.91;5035898;28;45317;-42
2023/10/11 07:34:08;;;;;;;;;18.67;17.33;;;;;17.54;57.32;101429.03;5035730;28;45505;-42
2023/10/11 07:36:38;;;;;;;;;17.67;17.67;;;;;17.58;57.88;101438.44;5036189;28;45335;-42
2023/10/11 07:39:14;;;;;;;;;22.00;15.00;;;;;17.64;57.84;101443.09;5035616;28;46353;-42
2023/10/11 07:41:42;;;;;;;;;20.00;16.00;;;;;17.60;57.86;101423.78;5035762;28;45467;-44
2023/10/11 07:44:08;;;;;;;;;20.67;15.33;;;;;17.71;57.76;101430.63;5036047;28;45471;-42
2023/10/11 07:46:33;;;;;;;;;23.33;17.00;;;;;17.76;57.69;101427.44;5036184;28;45388;-40
2023/10/11 07:49:01;;;;;;;;;18.33;17.33;;;;;17.78;57.70;101431.63;5035449;28;47038;-43
2023/10/11 07:51:34;;;;;;;;;20.00;17.00;;;;;17.83;57.47;101433.78;5038937;28;45366;-43
2023/10/11 07:54:06;;;;;;;;;18.00;14.67;;;;;17.95;57.22;101454.75;5039773;28;45364;-42
2023/10/11 07:56:35;;;;;;;;;17.00;14.00;;;;;18.01;57.12;101439.72;5039279;28;45505;-42
2023/10/11 07:59:12;;;;;;;;;14.67;13.00;;;;;18.11;56.97;101445.69;5039112;28;46217;-41
2023/10/11 08:01:44;;;;;;;;;18.67;16.00;;;;;18.15;56.63;101447.00;5033935;28;45425;-43
2023/10/11 08:04:17;;;;;;;;;22.67;18.33;;;;;18.23;56.79;101450.66;5038732;28;45374;-42
2023/10/11 08:06:44;;;;;;;;;20.33;14.33;;;;;18.26;56.86;101455.72;5050838;28;45509;-41
2023/10/11 08:09:18;;;;;;;;;22.67;17.67;;;;;18.30;56.64;101449.78;5057677;28;45563;-41
2023/10/11 08:11:52;;;;;;;;;18.33;15.00;;;;;18.35;56.33;101450.06;5058646;28;45415;-42
2023/10/11 08:14:22;;;;;;;;;19.67;16.00;;;;;18.46;56.69;101448.81;5058813;28;45438;-42
2023/10/11 08:16:51;;;;;;;;;19.33;13.67;;;;;18.61;55.85;101444.28;5040932;28;45186;-41
2023/10/11 08:19:17;;;;;;;;;15.33;15.33;;;;;18.76;55.51;101446.22;5058358;28;46098;-41
2023/10/11 08:21:57;;;;;;;;;19.00;11.00;;;;;18.90;54.00;101429.22;5058600;28;45425;-43
2023/10/11 08:24:25;;;;;;;;;20.33;13.00;;;;;19.17;52.35;101434.00;5057912;28;45436;-42
2023/10/11 08:26:52;;;;;;;;;14.00;11.75;;;;;19.72;51.49;101431.81;5058798;28;45364;-42
2023/10/11 08:29:27;;;;;;;;;11.75;11.00;;;;;21.40;47.92;101414.88;5058559;28;45283;-42
2023/10/11 08:31:56;;;;;;;;;13.00;10.00;;;;;22.96;44.54;101414.69;5058224;28;45372;-44
2023/10/11 08:34:25;;;;;;;;;18.00;13.25;;;;;24.20;42.55;101413.50;5058678;28;45416;-41
2023/10/11 08:36:51;;;;;;;;;2.50;0.75;;;;;24.76;40.33;101412.63;5041495;28;45442;-43
2023/10/11 08:39:21;;;;;;;;;12.50;9.50;;;;;25.78;39.52;101412.94;5058301;28;46220;-44
2023/10/11 08:41:46;;;;;;;;;12.60;11.80;;;;;26.65;36.71;101402.34;5056665;28;45648;-42
2023/10/11 08:44:26;;;;;;;;;18.00;13.00;;;;;27.08;35.81;101409.28;5058564;28;45686;-42
2023/10/11 08:46:52;;;;;;;;;13.50;10.75;;;;;26.91;35.98;101405.63;5058464;28;45315;-41
2023/10/11 08:49:17;;;;;;;;;16.25;11.00;;;;;26.59;37.07;101412.31;5057769;28;46603;-41
2023/10/11 08:51:43;;;;;;;;;10.50;8.00;;;;;26.51;35.79;101404.47;5057783;28;45467;-43
2023/10/11 08:54:16;;;;;;;;;14.20;9.00;;;;;26.62;35.59;101411.00;5057881;28;45712;-43
2023/10/11 08:56:54;;;;;;;;;8.80;8.80;;;;;26.79;35.40;101403.75;5056988;28;45482;-42
2023/10/11 08:59:25;;;;;;;;;12.60;9.00;;;;;27.04;34.79;101416.31;5057741;28;46704;-42
2023/10/11 09:01:52;;;;;;;;;8.20;6.00;;;;;27.30;33.73;101407.59;5057085;28;45414;-44
2023/10/11 09:04:17;;;;;;;;;11.20;9.60;;;;;27.81;32.73;101407.78;5057912;28;45428;-44
2023/10/11 09:06:44;;;;;;;;;9.00;9.00;;;;;28.85;32.04;101405.41;5058181;28;45378;-42
2023/10/11 09:09:32;;;;;;;;;8.80;7.60;;;;;30.08;29.83;101415.09;5056155;28;47297;-41
2023/10/11 09:11:58;;;;;;;;;10.20;9.00;;;;;31.33;28.59;101416.56;5055409;28;45301;-42
2023/10/11 09:14:23;;;;;;;;;8.75;6.75;;;;;31.94;27.38;101401.06;5057985;28;45429;-41
2023/10/11 09:17:02;;;;;;;;;14.75;10.25;;;;;32.71;26.86;101409.28;5058126;28;45321;-41
2023/10/11 09:19:28;;;;;;;;;10.60;8.40;;;;;33.29;26.00;101398.66;5057224;28;47204;-40
2023/10/11 09:22:04;;;;;;;;;9.50;7.50;;;;;33.78;25.48;101395.06;5056262;28;45323;-42
2023/10/11 09:24:38;;;;;;;;;9.00;7.60;;;;;34.29;24.83;101400.19;5057782;28;45386;-44
2023/10/11 09:29:43;;;;;;;;;10.00;8.80;;;;;35.04;23.51;101399.72;5057572;28;45965;-42
2023/10/11 09:32:09;;;;;;;;;10.20;8.40;;;;;35.25;23.21;101398.34;5057625;28;45380;-51
2023/10/11 09:34:41;;;;;;;;;10.00;8.00;;;;;35.72;23.07;101406.84;5056272;28;45396;-54
2023/10/11 09:37:11;;;;;;;;;8.40;8.00;;;;;36.17;22.62;101405.31;5057869;28;45346;-47
2023/10/11 09:39:37;;;;;;;;;9.80;7.00;;;;;36.37;22.36;101403.31;5057419;28;45528;-50
2023/10/11 09:42:04;;;;;;;;;9.60;8.00;;;;;36.65;23.03;101395.88;5057415;28;45403;-45
2023/10/11 09:44:44;;;;;;;;;8.20;7.80;;;;;36.91;22.50;101396.19;5057340;28;45444;-53
2023/10/11 09:47:16;;;;;;;;;13.40;9.40;;;;;37.08;23.29;101395.59;5057577;28;45391;-43
2023/10/11 09:49:42;;;;;;;;;13.60;9.60;;;;;36.25;22.91;101397.44;5057201;28;45426;-49
2023/10/11 09:52:18;;;;;;;;;10.20;9.60;;;;;36.44;22.67;101407.34;5057296;28;45264;-48
2023/10/11 09:54:50;;;;;;;;;10.60;9.60;;;;;36.95;21.36;101403.63;5057138;28;45619;-46
2023/10/11 09:57:50;;;;;;;;;9.00;8.40;;;;;37.15;22.08;101401.56;5046770;28;45464;-43
2023/10/11 10:00:17;;;;;;;;;10.80;8.20;;;;;37.42;21.49;101403.47;5036853;28;46216;-49
2023/10/11 10:02:50;;;;;;;;;9.40;7.00;;;;;37.72;21.01;101401.97;5018807;28;45439;-43
2023/10/11 10:05:16;;;;;;;;;11.00;8.80;;;;;38.04;20.89;101380.66;5016544;28;45355;-48
2023/10/11 10:07:44;;;;;;;;;7.60;6.20;;;;;38.10;21.06;101396.06;5016969;28;45497;-43
2023/10/11 10:10:15;;;;;;;;;12.40;5.40;;;;;38.12;21.10;101399.34;5016890;28;47556;-49
2023/10/11 10:12:41;;;;;;;;;7.80;5.00;;;;;38.12;21.44;101391.81;5016373;28;45424;-51
2023/10/11 10:15:20;;;;;;;;;9.80;7.60;;;;;37.88;21.12;101389.38;5016564;28;45364;-47
2023/10/11 10:18:00;;;;;;;;;7.80;7.60;;;;;37.42;22.30;101392.38;5016959;28;45381;-45
2023/10/11 10:20:28;;;;;;;;;6.60;6.60;;;;;36.86;22.61;101382.44;5016132;28;45537;-50
2023/10/11 10:23:16;;;;;;;;;6.20;5.00;;;;;36.40;23.17;101381.34;5016635;28;45446;-48
2023/10/11 10:25:46;;;;;;;;;11.60;8.40;;;;;36.17;23.45;101385.09;5016534;28;45306;-52
2023/10/11 10:28:34;;;;;;;;;10.60;7.20;;;;;36.20;23.53;101382.56;5016788;28;45439;-41
2023/10/11 10:31:20;;;;;;;;;10.20;7.80;;;;;36.07;24.39;101382.50;5016062;28;46491;-49
2023/10/11 10:33:51;;;;;;;;;9.20;8.00;;;;;35.81;23.88;101387.59;5016294;28;45439;-51
2023/10/11 10:36:43;;;;;;;;;8.60;5.00;;;;;35.62;24.17;101376.56;5016815;28;45445;-51
2023/10/11 10:41:36;;;;;;;;;5.60;5.60;;;;;35.41;25.14;101378.78;5016096;28;45451;-46
2023/10/11 10:44:12;;;;;;;;;8.60;7.60;;;;;35.56;24.25;101377.75;5016369;28;45581;-53
2023/10/11 10:46:50;;;;;;;;;6.80;5.40;;;;;35.69;24.30;101374.22;5016732;28;45455;-53
2023/10/11 10:49:20;;;;;;;;;7.00;4.20;;;;;35.94;24.25;101376.56;5016418;28;45361;-58
2023/10/11 10:51:49;;;;;;;;;11.00;8.20;;;;;36.33;22.31;101371.81;5015988;28;47242;-47
2023/10/11 10:54:21;;;;;;;;;7.60;7.00;;;;;37.19;22.66;101369.28;5016177;28;45466;-53
2023/10/11 10:56:47;;;;;;;;;10.80;6.80;;;;;38.78;20.79;101358.69;5016677;28;45500;-50
2023/10/11 10:59:15;;;;;;;;;7.20;7.20;;;;;40.34;19.50;101364.28;5016076;28;45339;-53
2023/10/11 11:01:44;;;;;;;;;7.20;6.00;;;;;41.23;19.90;101342.00;5025979;28;46146;-48
2023/10/11 11:04:11;;;;;;;;;8.40;7.80;;;;;41.23;20.23;101350.38;5035939;28;45433;-52
2023/10/11 11:06:41;;;;;;;;;10.20;7.20;;;;;41.07;19.18;101354.91;5036126;28;45411;-43
2023/10/11 11:09:13;;;;;;;;;8.40;6.00;;;;;41.11;18.42;101347.50;5036198;28;45402;-41
2023/10/11 11:11:42;;;;;;;;;8.40;6.60;;;;;41.29;17.43;101345.38;5035679;28;46708;-41
2023/10/11 11:14:09;;;;;;;;;7.20;7.20;;;;;41.14;17.99;101347.66;5035841;28;45393;-40
2023/10/11 11:16:39;;;;;;;;;7.20;6.40;;;;;41.23;18.43;101343.97;5035801;28;45263;-40
2023/10/11 11:19:25;;;;;;;;;6.40;5.00;;;;;41.64;17.51;101323.59;5035974;28;45413;-40
2023/10/11 11:22:11;;;;;;;;;4.60;4.60;;;;;41.78;17.97;101326.91;5035659;28;46570;-40
2023/10/11 11:24:36;;;;;;;;;4.80;4.60;;;;;41.80;17.59;101326.53;5034980;28;45407;-46
2023/10/11 11:27:06;;;;;;;;;8.00;5.25;;;;;41.55;18.12;101326.50;5035629;28;45360;-40
2023/10/11 11:29:33;;;;;;;;;11.20;9.20;;;;;41.34;18.10;101309.72;5035970;28;45468;-46
2023/10/11 11:32:14;;;;;;;;;9.40;5.20;;;;;40.76;17.61;101319.81;5035525;28;45873;-43
2023/10/11 11:35:04;;;;;;;;;9.80;7.60;;;;;40.63;18.87;101312.50;5035702;28;45522;-40
2023/10/11 11:37:30;;;;;;;;;9.40;6.80;;;;;40.70;19.04;101323.13;5035303;28;45406;-46
2023/10/11 11:42:47;;;;;;;;;10.00;6.00;;;;;40.58;18.50;101312.69;5035377;28;45472;-41
2023/10/11 11:45:14;;;;;;;;;4.40;4.40;;;;;40.64;18.54;101316.94;5035297;28;45572;-41
2023/10/11 11:47:40;;;;;;;;;4.00;4.00;;;;;40.23;18.98;101314.78;5035601;28;45415;-41
2023/10/11 11:50:18;;;;;;;;;8.75;4.50;;;;;39.90;19.22;101315.34;5035470;28;45554;-40
2023/10/11 11:52:43;;;;;;;;;8.80;5.80;;;;;39.33;19.62;101310.00;5032019;28;45472;-41
2023/10/11 11:55:09;;;;;;;;;7.50;5.75;;;;;38.80;20.53;101295.19;5035238;28;45380;-47
2023/10/11 11:57:35;;;;;;;;;11.75;7.25;;;;;37.90;20.52;101291.84;5035506;28;45459;-42
2023/10/11 12:00:19;;;;;;;;;5.50;5.00;;;;;36.79;21.92;101277.50;5035597;28;45198;-40
2023/10/11 12:02:45;;;;;;;;;8.40;7.40;;;;;35.88;22.78;101280.09;5034900;28;47273;-40
2023/10/11 12:05:11;;;;;;;;;8.50;6.00;;;;;35.41;23.74;101277.25;5035160;28;45823;-40
2023/10/11 12:07:36;;;;;;;;;7.75;7.25;;;;;35.09;23.68;101257.81;5035246;28;45162;-40
2023/10/11 12:10:01;;;;;;;;;8.00;6.75;;;;;34.81;24.34;101263.16;5035575;28;45285;-42
2023/10/11 12:12:27;;;;;;;;;8.75;7.00;;;;;34.59;24.08;101252.66;5035098;28;46490;-41
2023/10/11 12:14:52;;;;;;;;;13.50;9.00;;;;;34.47;25.04;101258.63;5035159;28;45397;-40
2023/10/11 12:17:17;;;;;;;;;7.00;5.00;;;;;34.31;25.03;101246.06;5035144;28;45464;-42